Time;durP1;ratioP1;P1;durP2;ratioP2;P2;SDS_P1;SDS_P2;PMS_P1;PMS_P2;Temp;Humidity;BMP_temperature;BMP_pressure;BME280_temperature;BME280_humidity;BME280_pressure;Samples;Min_cycle;Max_cycle;Signal;HPM_P1;HPM_P2
2022/01/13 00:00:18;;;;;;;42.95;23.88;;;;;;;;;;5030853;28;20057;-77
2022/01/13 00:02:45;;;;;;;46.00;24.85;;;;;;;;;;5029644;28;20140;-76
2022/01/13 00:05:11;;;;;;;50.38;28.27;;;;;;;;;;5030374;28;20033;-77
2022/01/13 00:07:37;;;;;;;56.15;27.95;;;;;;;;;;5030644;28;20037;-77
2022/01/13 00:10:04;;;;;;;71.53;34.47;;;;;;;;;;5030523;28;20036;-76
2022/01/13 00:12:37;;;;;;;43.40;22.38;;;;;;;;;;5029087;28;20033;-77
2022/01/13 00:25:33;;;;;;;47.15;24.45;;;;;;;;;;5029943;28;20511;-77
2022/01/13 00:28:01;;;;;;;62.08;30.02;;;;;;;;;;5030738;28;20033;-77
2022/01/13 00:30:27;;;;;;;58.92;28.48;;;;;;;;;;5024181;28;20026;-77
2022/01/13 00:32:53;;;;;;;56.70;26.90;;;;;;;;;;5011537;28;20041;-77
2022/01/13 00:35:20;;;;;;;64.47;32.65;;;;;;;;;;5023294;28;20045;-77
2022/01/13 00:37:46;;;;;;;54.53;26.88;;;;;;;;;;5030636;28;20380;-77
2022/01/13 00:40:12;;;;;;;45.72;24.60;;;;;;;;;;5020565;28;20037;-77
2022/01/13 00:42:38;;;;;;;43.63;23.17;;;;;;;;;;5010716;28;20042;-77
2022/01/13 00:45:05;;;;;;;47.95;23.90;;;;;;;;;;5043425;28;20061;-77
2022/01/13 00:47:33;;;;;;;47.00;22.08;;;;;;;;;;5030314;28;20672;-76
2022/01/13 00:49:59;;;;;;;45.05;24.15;;;;;;;;;;5029969;28;20034;-77
2022/01/13 00:52:26;;;;;;;47.22;26.98;;;;;;;;;;5012511;28;20034;-76
2022/01/13 00:54:52;;;;;;;44.08;22.55;;;;;;;;;;5029460;28;20037;-77
2022/01/13 00:57:18;;;;;;;59.30;33.90;;;;;;;;;;5030029;28;20472;-76
2022/01/13 00:59:44;;;;;;;106.15;64.80;;;;;;;;;;5030102;28;20552;-77
2022/01/13 01:02:10;;;;;;;80.55;48.70;;;;;;;;;;5029543;28;20069;-76
2022/01/13 01:04:36;;;;;;;65.68;38.13;;;;;;;;;;5029758;28;20072;-77
2022/01/13 01:07:02;;;;;;;92.43;41.58;;;;;;;;;;5029668;28;20034;-77
2022/01/13 01:09:33;;;;;;;66.30;33.08;;;;;;;;;;5030156;28;20025;-77
2022/01/13 01:12:00;;;;;;;66.45;31.48;;;;;;;;;;5030039;28;20435;-77
2022/01/13 01:14:28;;;;;;;54.80;26.38;;;;;;;;;;5009297;28;20034;-77
2022/01/13 01:16:54;;;;;;;52.35;24.38;;;;;;;;;;5022476;28;20043;-77
2022/01/13 01:19:26;;;;;;;52.78;22.50;;;;;;;;;;5013132;28;20116;-76
2022/01/13 01:27:26;;;;;;;54.95;29.35;;;;;;;;;;5029840;28;20056;-77
2022/01/13 01:30:24;;;;;;;61.55;29.95;;;;;;;;;;5029856;28;20021;-77
2022/01/13 01:32:40;;;;;;;60.10;29.13;;;;;;;;;;5032356;28;20380;-77
2022/01/13 01:35:13;;;;;;;48.55;22.55;;;;;;;;;;5033459;28;20033;-76
2022/01/13 01:37:40;;;;;;;39.90;21.60;;;;;;;;;;5033303;28;20038;-77
2022/01/13 01:40:07;;;;;;;37.80;19.73;;;;;;;;;;5033753;28;20065;-76
2022/01/13 01:42:33;;;;;;;35.65;19.88;;;;;;;;;;5024639;28;20132;-77
2022/01/13 01:45:00;;;;;;;39.15;19.02;;;;;;;;;;5033399;28;20053;-77
2022/01/13 01:47:28;;;;;;;39.95;20.75;;;;;;;;;;5017497;28;20025;-77
2022/01/13 01:49:57;;;;;;;41.90;18.67;;;;;;;;;;5032685;28;20040;-76
2022/01/13 01:52:23;;;;;;;41.80;21.45;;;;;;;;;;5033198;28;20529;-77
2022/01/13 01:54:50;;;;;;;39.90;21.67;;;;;;;;;;5032551;28;20045;-77
2022/01/13 01:57:17;;;;;;;78.68;29.42;;;;;;;;;;5033329;28;20063;-76
2022/01/13 01:59:44;;;;;;;116.85;41.05;;;;;;;;;;5031403;28;20041;-76
2022/01/13 02:02:15;;;;;;;156.32;52.55;;;;;;;;;;5017368;28;20058;-76
2022/01/13 02:04:41;;;;;;;181.20;58.15;;;;;;;;;;5018766;28;20044;-76
2022/01/13 02:07:08;;;;;;;185.85;56.25;;;;;;;;;;5032710;28;20033;-77
2022/01/13 02:09:36;;;;;;;131.13;43.97;;;;;;;;;;5032476;28;20029;-76
2022/01/13 02:12:07;;;;;;;127.60;41.55;;;;;;;;;;5033379;28;20022;-76
2022/01/13 02:17:09;;;;;;;88.28;30.33;;;;;;;;;;5021690;28;20052;-76
2022/01/13 02:19:37;;;;;;;63.28;27.13;;;;;;;;;;5032109;28;20489;-76
2022/01/13 02:22:03;;;;;;;51.42;21.65;;;;;;;;;;5031216;28;20045;-77
2022/01/13 02:24:30;;;;;;;45.20;20.17;;;;;;;;;;5030757;28;20046;-77
2022/01/13 02:26:56;;;;;;;40.67;19.85;;;;;;;;;;5033062;28;20079;-77
2022/01/13 02:29:22;;;;;;;43.00;20.85;;;;;;;;;;5012335;28;20033;-77
2022/01/13 02:31:48;;;;;;;98.28;38.55;;;;;;;;;;5012952;28;20712;-76
2022/01/13 02:34:14;;;;;;;80.40;30.63;;;;;;;;;;5012542;28;20042;-77
2022/01/13 02:36:42;;;;;;;75.35;29.83;;;;;;;;;;5030943;28;20838;-77
2022/01/13 02:39:08;;;;;;;60.25;25.02;;;;;;;;;;5032538;28;20443;-77
2022/01/13 02:41:34;;;;;;;53.10;21.83;;;;;;;;;;5017321;28;20077;-77
2022/01/13 02:44:00;;;;;;;56.97;26.75;;;;;;;;;;4996156;28;20045;-77
2022/01/13 02:46:54;;;;;;;46.67;25.60;;;;;;;;;;5019805;28;20072;-77
2022/01/13 02:49:20;;;;;;;55.63;26.20;;;;;;;;;;5032191;28;20646;-77
2022/01/13 02:51:47;;;;;;;66.95;29.75;;;;;;;;;;5014455;28;20435;-77
2022/01/13 02:54:13;;;;;;;79.80;31.80;;;;;;;;;;5020022;28;20079;-76
2022/01/13 02:56:40;;;;;;;69.03;29.48;;;;;;;;;;4997981;28;20028;-77
2022/01/13 02:59:06;;;;;;;50.08;20.42;;;;;;;;;;5011946;28;20030;-77
2022/01/13 03:01:36;;;;;;;40.25;20.13;;;;;;;;;;5024968;28;20041;-76
2022/01/13 03:04:08;;;;;;;34.20;17.08;;;;;;;;;;5031592;28;20041;-77
2022/01/13 03:06:35;;;;;;;31.67;15.52;;;;;;;;;;5031400;28;20025;-77
2022/01/13 03:09:03;;;;;;;24.20;13.65;;;;;;;;;;5031796;28;20052;-77
2022/01/13 03:11:37;;;;;;;25.35;12.88;;;;;;;;;;5031138;28;20025;-76
2022/01/13 03:14:11;;;;;;;24.25;12.63;;;;;;;;;;5030270;28;20033;-76
2022/01/13 03:16:37;;;;;;;25.40;12.45;;;;;;;;;;5031088;28;20103;-76
2022/01/13 03:19:04;;;;;;;28.00;13.70;;;;;;;;;;5030853;28;20037;-77
2022/01/13 03:21:30;;;;;;;25.67;14.25;;;;;;;;;;5023134;28;20556;-77
2022/01/13 03:23:56;;;;;;;27.08;14.93;;;;;;;;;;5016733;28;20049;-76
2022/01/13 03:26:22;;;;;;;28.08;14.23;;;;;;;;;;5031182;28;20104;-76
2022/01/13 03:29:04;;;;;;;31.35;16.30;;;;;;;;;;5031100;28;20040;-77
2022/01/13 03:31:30;;;;;;;29.92;16.55;;;;;;;;;;5031371;28;20029;-76
2022/01/13 03:33:56;;;;;;;33.67;16.88;;;;;;;;;;5030526;28;20032;-77
2022/01/13 03:36:22;;;;;;;24.17;13.77;;;;;;;;;;5031503;28;20102;-77
2022/01/13 03:38:48;;;;;;;28.75;16.00;;;;;;;;;;5031200;28;20591;-76
2022/01/13 03:41:14;;;;;;;38.72;18.27;;;;;;;;;;5030757;28;20108;-77
2022/01/13 03:43:41;;;;;;;64.90;31.42;;;;;;;;;;5031133;28;20036;-76
2022/01/13 03:46:07;;;;;;;47.17;23.13;;;;;;;;;;5030531;28;20783;-76
2022/01/13 03:48:33;;;;;;;42.28;20.65;;;;;;;;;;5030738;28;20681;-77
2022/01/13 03:50:59;;;;;;;36.97;18.70;;;;;;;;;;5030722;28;20668;-76
2022/01/13 03:53:28;;;;;;;34.95;17.27;;;;;;;;;;5030475;28;20108;-76
2022/01/13 03:56:13;;;;;;;31.17;16.25;;;;;;;;;;5030154;28;20029;-77
2022/01/13 03:58:39;;;;;;;31.10;16.88;;;;;;;;;;5030450;28;20088;-77
2022/01/13 04:01:14;;;;;;;28.50;16.48;;;;;;;;;;5030203;28;20037;-77
2022/01/13 04:03:40;;;;;;;29.70;16.77;;;;;;;;;;5030448;28;20052;-76
2022/01/13 04:06:12;;;;;;;30.67;16.95;;;;;;;;;;5030017;28;20038;-76
2022/01/13 04:08:39;;;;;;;29.17;15.85;;;;;;;;;;5011051;28;20026;-76
2022/01/13 04:11:05;;;;;;;32.85;15.48;;;;;;;;;;5027968;28;20026;-77
2022/01/13 04:16:11;;;;;;;28.38;14.93;;;;;;;;;;5030101;28;21165;-76
2022/01/13 04:18:37;;;;;;;25.52;12.98;;;;;;;;;;5030441;28;20045;-77
2022/01/13 04:21:03;;;;;;;31.42;16.67;;;;;;;;;;5007476;28;20029;-77
2022/01/13 04:23:29;;;;;;;30.35;16.75;;;;;;;;;;5010496;28;20058;-76
2022/01/13 04:25:57;;;;;;;37.95;20.45;;;;;;;;;;5026217;28;20107;-77
2022/01/13 04:28:27;;;;;;;50.92;24.67;;;;;;;;;;5030470;28;20091;-76
2022/01/13 04:31:00;;;;;;;47.50;22.13;;;;;;;;;;5030034;28;20018;-77
2022/01/13 04:33:26;;;;;;;41.90;21.23;;;;;;;;;;5019800;28;20124;-76
2022/01/13 04:35:52;;;;;;;49.45;23.38;;;;;;;;;;5030134;28;20033;-77
2022/01/13 04:38:19;;;;;;;45.38;21.77;;;;;;;;;;5030300;28;20060;-77
2022/01/13 04:40:47;;;;;;;45.17;23.05;;;;;;;;;;5030171;28;20038;-77
2022/01/13 04:43:13;;;;;;;51.15;24.88;;;;;;;;;;5025167;28;20492;-76
2022/01/13 04:45:40;;;;;;;39.17;19.73;;;;;;;;;;5011573;28;20663;-77
2022/01/13 04:48:06;;;;;;;34.88;17.63;;;;;;;;;;5030473;28;20439;-76
2022/01/13 04:50:32;;;;;;;38.10;17.60;;;;;;;;;;5024776;28;20034;-76
2022/01/13 04:52:58;;;;;;;34.97;19.65;;;;;;;;;;5025985;28;20060;-77
2022/01/13 04:55:26;;;;;;;28.15;15.70;;;;;;;;;;5029699;28;20065;-76
2022/01/13 04:57:53;;;;;;;33.78;17.58;;;;;;;;;;5030822;28;20033;-77
2022/01/13 05:00:20;;;;;;;41.25;20.38;;;;;;;;;;5030194;28;20033;-76
2022/01/13 05:02:46;;;;;;;32.22;17.25;;;;;;;;;;5028835;28;20388;-77
2022/01/13 05:05:12;;;;;;;33.53;17.95;;;;;;;;;;5029004;28;20042;-77
2022/01/13 05:07:38;;;;;;;34.85;17.50;;;;;;;;;;5034918;28;20061;-77
2022/01/13 05:10:05;;;;;;;39.40;18.90;;;;;;;;;;5029478;28;20038;-77
2022/01/13 05:12:37;;;;;;;36.92;18.42;;;;;;;;;;5033530;28;20030;-77
2022/01/13 05:15:06;;;;;;;34.22;18.42;;;;;;;;;;5033829;28;20376;-77
2022/01/13 05:20:19;;;;;;;34.35;16.70;;;;;;;;;;5028567;28;20053;-76
2022/01/13 05:22:45;;;;;;;40.83;20.73;;;;;;;;;;5027985;28;20053;-76
2022/01/13 05:25:11;;;;;;;45.95;20.85;;;;;;;;;;5029563;28;20046;-76
2022/01/13 05:27:37;;;;;;;40.85;20.40;;;;;;;;;;5015643;28;20488;-76
2022/01/13 05:30:05;;;;;;;36.65;19.45;;;;;;;;;;5031192;28;20041;-76
2022/01/13 05:32:31;;;;;;;42.60;19.50;;;;;;;;;;5016843;28;20036;-76
2022/01/13 05:34:57;;;;;;;40.80;20.20;;;;;;;;;;5020212;28;20041;-76
2022/01/13 05:37:23;;;;;;;39.25;18.80;;;;;;;;;;5032978;28;20044;-77
2022/01/13 05:39:49;;;;;;;36.72;19.17;;;;;;;;;;5030268;28;20561;-76
2022/01/13 05:42:15;;;;;;;177.13;84.53;;;;;;;;;;5025461;28;20572;-77
2022/01/13 05:44:41;;;;;;;200.20;95.22;;;;;;;;;;5025152;28;20045;-77
2022/01/13 05:47:08;;;;;;;186.30;85.03;;;;;;;;;;5027203;28;20025;-76
2022/01/13 05:49:34;;;;;;;163.32;75.50;;;;;;;;;;5029517;28;20030;-77
2022/01/13 05:52:00;;;;;;;115.85;53.30;;;;;;;;;;5032276;28;20112;-77
2022/01/13 05:54:26;;;;;;;81.00;40.85;;;;;;;;;;5023529;28;20033;-77
2022/01/13 05:56:52;;;;;;;70.03;34.58;;;;;;;;;;5025798;28;20845;-76
2022/01/13 05:59:20;;;;;;;67.03;34.55;;;;;;;;;;5025742;28;20065;-76
2022/01/13 06:01:46;;;;;;;69.43;33.03;;;;;;;;;;5030275;28;20028;-77
2022/01/13 06:04:12;;;;;;;58.60;30.90;;;;;;;;;;5029324;28;20496;-76
2022/01/13 06:06:38;;;;;;;51.55;24.75;;;;;;;;;;5031983;28;20061;-76
2022/01/13 06:09:03;;;;;;;44.60;21.38;;;;;;;;;;5029820;28;20499;-77
2022/01/13 06:11:37;;;;;;;44.17;20.52;;;;;;;;;;5014739;28;20030;-77
2022/01/13 06:14:04;;;;;;;42.60;22.08;;;;;;;;;;5028081;28;20498;-76
2022/01/13 06:16:30;;;;;;;47.90;22.63;;;;;;;;;;5024142;28;20594;-76
2022/01/13 06:18:56;;;;;;;44.38;21.52;;;;;;;;;;5028147;28;20407;-76
2022/01/13 06:21:22;;;;;;;45.42;22.17;;;;;;;;;;5025129;28;20029;-77
2022/01/13 06:23:48;;;;;;;45.53;22.02;;;;;;;;;;5027551;28;20053;-77
2022/01/13 06:26:14;;;;;;;41.60;21.42;;;;;;;;;;5023553;28;20050;-76
2022/01/13 06:28:40;;;;;;;40.53;21.15;;;;;;;;;;5027295;28;20053;-77
2022/01/13 06:31:06;;;;;;;46.47;22.65;;;;;;;;;;5026902;28;20017;-77
2022/01/13 06:33:33;;;;;;;49.97;24.48;;;;;;;;;;5028666;28;20040;-76
2022/01/13 06:35:59;;;;;;;39.88;19.85;;;;;;;;;;5010772;28;20594;-76
2022/01/13 06:38:25;;;;;;;41.00;19.50;;;;;;;;;;5024691;28;20038;-77
2022/01/13 06:40:52;;;;;;;45.15;19.90;;;;;;;;;;5020044;28;20034;-77
2022/01/13 06:43:18;;;;;;;44.22;20.38;;;;;;;;;;5024607;28;20124;-77
2022/01/13 06:45:44;;;;;;;50.72;22.85;;;;;;;;;;5025942;28;20032;-77
2022/01/13 06:48:10;;;;;;;48.08;24.35;;;;;;;;;;5026186;28;20115;-77
2022/01/13 06:50:36;;;;;;;48.42;24.13;;;;;;;;;;5025404;28;20034;-77
2022/01/13 06:53:03;;;;;;;90.95;40.08;;;;;;;;;;5025392;28;20029;-76
2022/01/13 06:55:29;;;;;;;92.53;43.72;;;;;;;;;;5029001;28;20041;-76
2022/01/13 06:57:55;;;;;;;96.75;44.17;;;;;;;;;;5021873;28;20076;-77
2022/01/13 07:00:23;;;;;;;80.57;37.95;;;;;;;;;;5028372;28;20057;-77
2022/01/13 07:02:49;;;;;;;69.30;32.25;;;;;;;;;;5032033;28;20480;-77
2022/01/13 07:05:15;;;;;;;65.20;30.85;;;;;;;;;;5022200;28;20125;-77
2022/01/13 07:07:42;;;;;;;64.28;28.77;;;;;;;;;;5024378;28;20104;-77
2022/01/13 07:10:09;;;;;;;55.85;25.73;;;;;;;;;;5020239;28;20029;-77
2022/01/13 07:12:35;;;;;;;53.85;24.98;;;;;;;;;;5023558;28;20036;-77
2022/01/13 07:15:01;;;;;;;58.22;23.83;;;;;;;;;;5031529;28;20029;-77
2022/01/13 07:17:27;;;;;;;54.22;25.52;;;;;;;;;;5030477;28;20038;-77
2022/01/13 07:19:53;;;;;;;100.25;36.08;;;;;;;;;;5026384;28;20056;-77
2022/01/13 07:22:19;;;;;;;104.40;38.25;;;;;;;;;;5028001;28;20080;-76
2022/01/13 07:24:46;;;;;;;110.93;41.92;;;;;;;;;;5025155;28;20419;-76
2022/01/13 07:27:12;;;;;;;101.63;34.55;;;;;;;;;;5022994;28;20077;-76
2022/01/13 07:29:42;;;;;;;146.00;55.47;;;;;;;;;;5009443;28;20591;-76
2022/01/13 07:32:09;;;;;;;265.45;106.03;;;;;;;;;;5025833;28;20056;-76
2022/01/13 07:34:35;;;;;;;232.77;94.45;;;;;;;;;;5026580;28;20037;-76
2022/01/13 07:37:01;;;;;;;206.73;85.32;;;;;;;;;;5022103;28;20034;-77
2022/01/13 07:39:27;;;;;;;182.05;77.45;;;;;;;;;;5023313;28;20503;-77
2022/01/13 07:41:53;;;;;;;118.45;50.65;;;;;;;;;;5024402;28;20065;-76
2022/01/13 07:44:19;;;;;;;91.18;40.53;;;;;;;;;;5022275;28;20523;-76
2022/01/13 07:46:45;;;;;;;64.10;30.60;;;;;;;;;;5027819;28;20563;-76
2022/01/13 07:49:12;;;;;;;91.20;38.10;;;;;;;;;;5012528;28;20041;-77
2022/01/13 07:51:38;;;;;;;101.50;41.40;;;;;;;;;;5022535;28;20496;-76
2022/01/13 07:54:04;;;;;;;64.82;29.70;;;;;;;;;;5022320;28;20466;-77
2022/01/13 07:56:30;;;;;;;36.13;18.85;;;;;;;;;;5027194;28;20717;-77
2022/01/13 07:58:56;;;;;;;43.67;23.30;;;;;;;;;;5022291;28;20789;-76
2022/01/13 08:01:23;;;;;;;53.58;27.42;;;;;;;;;;5023026;28;20084;-76
2022/01/13 08:03:49;;;;;;;55.72;25.55;;;;;;;;;;5027581;28;20021;-77
2022/01/13 08:06:15;;;;;;;48.65;25.55;;;;;;;;;;5026150;28;20139;-76
2022/01/13 08:08:41;;;;;;;48.15;24.65;;;;;;;;;;5022139;28;20026;-76
2022/01/13 08:11:08;;;;;;;45.78;25.85;;;;;;;;;;5005704;28;20030;-76
2022/01/13 08:13:35;;;;;;;51.90;26.55;;;;;;;;;;5026512;28;20499;-76
2022/01/13 08:16:07;;;;;;;51.97;25.48;;;;;;;;;;5017669;28;20037;-77
2022/01/13 08:21:18;;;;;;;48.42;24.08;;;;;;;;;;5020795;28;20091;-77
2022/01/13 08:23:44;;;;;;;52.22;24.60;;;;;;;;;;5020413;28;20129;-76
2022/01/13 08:26:10;;;;;;;51.13;28.08;;;;;;;;;;5018810;28;20049;-76
2022/01/13 08:28:36;;;;;;;60.90;30.88;;;;;;;;;;5024555;28;20484;-76
2022/01/13 08:31:06;;;;;;;65.25;31.27;;;;;;;;;;5002022;28;20361;-77
2022/01/13 08:33:32;;;;;;;59.50;30.50;;;;;;;;;;5020693;28;20516;-77
2022/01/13 08:35:58;;;;;;;55.15;27.35;;;;;;;;;;5004516;28;20056;-77
2022/01/13 08:38:25;;;;;;;57.85;30.38;;;;;;;;;;5019292;28;20076;-76
2022/01/13 08:40:54;;;;;;;51.40;27.05;;;;;;;;;;5023588;28;20038;-75
2022/01/13 08:43:21;;;;;;;47.97;24.67;;;;;;;;;;5019181;28;20034;-76
2022/01/13 08:45:48;;;;;;;45.35;24.55;;;;;;;;;;5022445;28;20037;-75
2022/01/13 08:48:14;;;;;;;48.45;26.30;;;;;;;;;;5016581;28;20025;-77
2022/01/13 08:50:40;;;;;;;53.03;24.70;;;;;;;;;;5019765;28;20034;-77
2022/01/13 08:53:06;;;;;;;53.03;29.27;;;;;;;;;;5019515;28;20064;-77
2022/01/13 08:55:33;;;;;;;49.88;26.92;;;;;;;;;;5026007;28;20030;-77
2022/01/13 08:57:59;;;;;;;44.65;23.25;;;;;;;;;;5028736;28;20110;-77
2022/01/13 09:00:25;;;;;;;50.28;27.88;;;;;;;;;;5026553;28;20634;-76
2022/01/13 09:02:51;;;;;;;54.33;27.25;;;;;;;;;;5029072;28;20527;-76
2022/01/13 09:05:18;;;;;;;53.88;28.45;;;;;;;;;;5024593;28;20038;-77
2022/01/13 09:07:44;;;;;;;50.90;26.85;;;;;;;;;;5022928;28;20044;-77
2022/01/13 09:10:11;;;;;;;47.55;24.52;;;;;;;;;;5007797;28;20061;-76
2022/01/13 09:12:38;;;;;;;49.38;26.65;;;;;;;;;;5027401;28;20033;-77
2022/01/13 09:15:15;;;;;;;62.90;29.05;;;;;;;;;;5027079;28;20076;-77
2022/01/13 09:17:42;;;;;;;63.35;31.80;;;;;;;;;;5023971;28;20476;-76
2022/01/13 09:20:09;;;;;;;66.88;33.05;;;;;;;;;;5026323;28;20065;-76
2022/01/13 09:22:35;;;;;;;60.10;29.80;;;;;;;;;;5028563;28;20403;-76
2022/01/13 09:25:01;;;;;;;55.92;27.38;;;;;;;;;;5019106;28;20046;-76
2022/01/13 09:27:27;;;;;;;52.78;26.67;;;;;;;;;;5025400;28;20072;-77
2022/01/13 09:29:53;;;;;;;54.88;28.52;;;;;;;;;;5023667;28;20427;-76
2022/01/13 09:32:20;;;;;;;56.45;28.38;;;;;;;;;;5016481;28;20033;-77
2022/01/13 09:34:46;;;;;;;63.30;32.20;;;;;;;;;;5028297;28;20564;-77
2022/01/13 09:37:12;;;;;;;69.90;34.38;;;;;;;;;;5026752;28;20041;-76
2022/01/13 09:39:38;;;;;;;71.00;41.53;;;;;;;;;;5025849;28;20069;-76
2022/01/13 09:42:05;;;;;;;63.60;38.30;;;;;;;;;;5028652;28;20053;-77
2022/01/13 09:44:31;;;;;;;64.60;36.00;;;;;;;;;;5028820;28;20105;-76
2022/01/13 09:46:57;;;;;;;52.75;31.30;;;;;;;;;;5007516;28;20034;-77
2022/01/13 09:49:24;;;;;;;52.53;31.67;;;;;;;;;;5028854;28;20029;-77
2022/01/13 09:51:50;;;;;;;51.58;31.05;;;;;;;;;;5028695;28;20048;-76
2022/01/13 09:54:16;;;;;;;51.17;31.88;;;;;;;;;;5032234;28;20476;-76
2022/01/13 09:56:42;;;;;;;52.50;31.73;;;;;;;;;;5031664;28;20040;-76
2022/01/13 09:59:09;;;;;;;48.13;30.83;;;;;;;;;;5029909;28;20037;-77
2022/01/13 10:01:35;;;;;;;50.08;31.48;;;;;;;;;;5031417;28;20033;-77
2022/01/13 10:04:01;;;;;;;56.97;32.70;;;;;;;;;;5022882;28;20395;-77
2022/01/13 10:06:27;;;;;;;60.60;32.72;;;;;;;;;;5029758;28;20044;-77
2022/01/13 10:08:54;;;;;;;57.47;32.30;;;;;;;;;;5024725;28;20029;-77
2022/01/13 10:11:28;;;;;;;61.67;36.20;;;;;;;;;;5024832;28;20065;-76
2022/01/13 10:16:51;;;;;;;59.00;29.15;;;;;;;;;;5028471;28;20057;-77
2022/01/13 10:19:33;;;;;;;48.75;27.42;;;;;;;;;;5028783;28;20084;-77
2022/01/13 10:21:59;;;;;;;42.67;25.50;;;;;;;;;;5029140;28;20060;-76
2022/01/13 10:24:27;;;;;;;42.42;26.00;;;;;;;;;;5031178;28;20041;-76
2022/01/13 10:26:58;;;;;;;33.92;20.88;;;;;;;;;;5029737;28;20040;-77
2022/01/13 10:29:35;;;;;;;31.45;18.42;;;;;;;;;;5024406;28;20030;-76
2022/01/13 10:32:01;;;;;;;27.08;15.75;;;;;;;;;;5040567;28;20029;-77
2022/01/13 10:34:28;;;;;;;25.67;15.98;;;;;;;;;;5039773;28;20033;-76
2022/01/13 10:37:04;;;;;;;40.35;22.67;;;;;;;;;;5026929;28;20059;-76
2022/01/13 10:39:52;;;;;;;46.58;26.70;;;;;;;;;;5030488;28;20072;-77
2022/01/13 10:45:07;;;;;;;57.15;30.02;;;;;;;;;;5029159;28;20179;-77
2022/01/13 10:47:34;;;;;;;47.28;28.65;;;;;;;;;;5020030;28;20041;-76
2022/01/13 10:50:01;;;;;;;45.00;24.75;;;;;;;;;;5024333;28;20204;-77
2022/01/13 10:52:28;;;;;;;39.38;20.17;;;;;;;;;;5022418;28;20817;-76
2022/01/13 10:55:06;;;;;;;27.58;16.77;;;;;;;;;;5031531;28;20037;-77
2022/01/13 10:57:33;;;;;;;29.00;17.67;;;;;;;;;;5032051;28;20033;-77
2022/01/13 10:59:59;;;;;;;21.10;14.35;;;;;;;;;;5023327;28;20065;-76
2022/01/13 11:02:25;;;;;;;21.60;13.18;;;;;;;;;;5030351;28;20030;-77
2022/01/13 11:04:51;;;;;;;19.98;12.95;;;;;;;;;;5026849;28;20043;-76
2022/01/13 11:07:27;;;;;;;25.40;15.60;;;;;;;;;;5031289;28;20136;-77
2022/01/13 11:09:54;;;;;;;26.00;15.95;;;;;;;;;;5031362;28;20025;-77
2022/01/13 11:12:36;;;;;;;26.35;14.55;;;;;;;;;;5031135;28;20101;-76
2022/01/13 11:15:05;;;;;;;17.25;11.68;;;;;;;;;;5018238;28;20105;-77
2022/01/13 11:17:33;;;;;;;26.00;17.05;;;;;;;;;;5024343;28;20025;-76
2022/01/13 11:20:00;;;;;;;24.83;16.33;;;;;;;;;;5025171;28;20033;-77
2022/01/13 11:22:26;;;;;;;28.17;17.67;;;;;;;;;;5009394;28;20076;-77
2022/01/13 11:24:52;;;;;;;24.73;16.83;;;;;;;;;;5029179;28;20052;-77
2022/01/13 11:27:20;;;;;;;27.05;16.55;;;;;;;;;;5028409;28;20029;-77
2022/01/13 11:29:46;;;;;;;22.77;15.38;;;;;;;;;;5025406;28;20137;-77
2022/01/13 11:32:15;;;;;;;22.35;15.70;;;;;;;;;;5027714;28;20034;-76
2022/01/13 11:34:41;;;;;;;24.13;15.65;;;;;;;;;;5028939;28;20049;-77
2022/01/13 11:37:07;;;;;;;22.05;13.93;;;;;;;;;;5022842;28;20026;-77
2022/01/13 11:39:44;;;;;;;19.25;13.10;;;;;;;;;;5012114;28;20033;-76
2022/01/13 11:42:11;;;;;;;22.10;14.25;;;;;;;;;;5039030;23;21437;-77
2022/01/13 11:44:38;;;;;;;20.45;13.85;;;;;;;;;;5003253;28;20060;-77
2022/01/13 11:47:15;;;;;;;19.52;14.02;;;;;;;;;;5002281;28;20484;-77
2022/01/13 11:49:57;;;;;;;23.55;14.20;;;;;;;;;;5010706;28;20037;-76
2022/01/13 11:52:47;;;;;;;19.33;12.75;;;;;;;;;;5011096;28;20385;-76
2022/01/13 11:55:21;;;;;;;21.90;14.38;;;;;;;;;;5008337;28;20088;-76
2022/01/13 11:57:47;;;;;;;23.77;13.27;;;;;;;;;;4990972;28;20030;-77
2022/01/13 12:00:40;;;;;;;21.67;13.32;;;;;;;;;;4999671;28;20037;-77
2022/01/13 12:03:22;;;;;;;25.88;13.73;;;;;;;;;;4996812;28;20124;-76
2022/01/13 12:05:48;;;;;;;18.02;12.63;;;;;;;;;;5010177;28;20037;-77
2022/01/13 12:08:32;;;;;;;20.88;13.18;;;;;;;;;;4999658;28;20065;-76
2022/01/13 12:10:58;;;;;;;21.00;12.82;;;;;;;;;;4999934;28;20076;-76
2022/01/13 12:13:33;;;;;;;19.70;13.15;;;;;;;;;;5002237;28;20735;-77
2022/01/13 12:16:00;;;;;;;23.23;14.38;;;;;;;;;;5009750;28;20112;-77
2022/01/13 12:18:46;;;;;;;21.88;14.07;;;;;;;;;;4999900;28;20035;-77
2022/01/13 12:21:26;;;;;;;26.15;15.00;;;;;;;;;;4987727;28;20815;-76
2022/01/13 12:23:52;;;;;;;20.77;15.30;;;;;;;;;;5010547;28;20034;-77
2022/01/13 12:26:33;;;;;;;20.45;14.07;;;;;;;;;;5009609;28;20088;-76
2022/01/13 12:29:13;;;;;;;26.02;14.07;;;;;;;;;;5009979;28;20036;-77
2022/01/13 12:31:53;;;;;;;24.05;14.88;;;;;;;;;;5006647;28;20073;-77
2022/01/13 12:34:39;;;;;;;22.13;15.20;;;;;;;;;;5007530;28;20034;-76
2022/01/13 12:37:11;;;;;;;25.60;16.20;;;;;;;;;;4995437;28;20073;-77
2022/01/13 12:40:01;;;;;;;27.33;16.75;;;;;;;;;;5005755;28;20092;-76
2022/01/13 12:42:29;;;;;;;27.33;16.77;;;;;;;;;;5003433;28;20125;-76
2022/01/13 12:47:41;;;;;;;26.42;16.98;;;;;;;;;;5005999;28;20040;-77
2022/01/13 12:50:18;;;;;;;34.65;18.48;;;;;;;;;;5005103;28;20455;-76
2022/01/13 12:52:44;;;;;;;25.90;16.33;;;;;;;;;;4987022;28;20070;-77
2022/01/13 12:55:11;;;;;;;25.42;15.68;;;;;;;;;;4984976;28;20494;-76
2022/01/13 12:57:42;;;;;;;22.23;14.30;;;;;;;;;;4985789;28;20038;-76
2022/01/13 13:00:09;;;;;;;27.15;14.65;;;;;;;;;;4986412;28;20594;-76
2022/01/13 13:02:35;;;;;;;23.65;14.65;;;;;;;;;;4985724;28;20826;-77
2022/01/13 13:05:01;;;;;;;23.98;14.30;;;;;;;;;;4984417;28;20109;-76
2022/01/13 13:07:27;;;;;;;25.63;14.20;;;;;;;;;;4988991;28;20041;-77
2022/01/13 13:10:02;;;;;;;23.55;14.32;;;;;;;;;;4987738;28;20126;-76
2022/01/13 13:12:31;;;;;;;21.38;13.77;;;;;;;;;;4986833;28;20035;-76
2022/01/13 13:17:42;;;;;;;33.10;17.15;;;;;;;;;;4987815;28;20437;-77
2022/01/13 13:20:10;;;;;;;41.33;19.13;;;;;;;;;;4984566;28;20109;-76
2022/01/13 13:22:56;;;;;;;83.88;33.95;;;;;;;;;;4984872;28;20041;-77
2022/01/13 13:25:33;;;;;;;73.40;28.92;;;;;;;;;;4986626;28;20030;-77
2022/01/13 13:28:18;;;;;;;40.50;19.38;;;;;;;;;;4988794;28;20062;-76
2022/01/13 13:30:44;;;;;;;22.42;12.82;;;;;;;;;;4992146;28;20038;-77
2022/01/13 13:33:10;;;;;;;20.42;13.35;;;;;;;;;;4993232;28;20041;-76
2022/01/13 13:35:36;;;;;;;18.60;12.27;;;;;;;;;;4990665;28;20034;-76
2022/01/13 13:38:03;;;;;;;17.50;11.13;;;;;;;;;;4990742;28;20412;-76
2022/01/13 13:40:29;;;;;;;18.17;10.48;;;;;;;;;;4989873;28;20481;-77
2022/01/13 13:42:59;;;;;;;15.18;10.10;;;;;;;;;;4986339;28;20054;-76
2022/01/13 13:45:25;;;;;;;18.17;9.10;;;;;;;;;;4988101;28;20128;-77
2022/01/13 13:47:55;;;;;;;15.93;8.40;;;;;;;;;;4969445;28;20034;-77
2022/01/13 13:50:21;;;;;;;14.57;8.55;;;;;;;;;;4988154;28;20072;-76
2022/01/13 13:52:47;;;;;;;16.20;9.35;;;;;;;;;;4984921;28;20157;-76
2022/01/13 13:55:13;;;;;;;15.75;9.23;;;;;;;;;;4983744;28;20121;-76
2022/01/13 13:57:39;;;;;;;15.13;9.38;;;;;;;;;;4989138;28;20078;-76
2022/01/13 14:00:10;;;;;;;16.13;8.35;;;;;;;;;;4986328;28;20856;-76
2022/01/13 14:02:37;;;;;;;15.20;7.65;;;;;;;;;;4989503;28;20034;-76
2022/01/13 14:05:04;;;;;;;26.55;9.40;;;;;;;;;;4987123;28;20070;-77
2022/01/13 14:07:33;;;;;;;24.30;12.40;;;;;;;;;;4988300;28;20022;-77
2022/01/13 14:10:08;;;;;;;27.17;13.88;;;;;;;;;;4988186;28;20116;-76
2022/01/13 14:12:40;;;;;;;31.38;18.08;;;;;;;;;;4985646;28;20058;-77
2022/01/13 14:15:15;;;;;;;37.22;23.20;;;;;;;;;;4983553;28;20049;-76
2022/01/13 14:17:41;;;;;;;35.38;21.40;;;;;;;;;;4989244;28;20429;-76
2022/01/13 14:20:09;;;;;;;29.15;19.38;;;;;;;;;;4984421;28;20054;-77
2022/01/13 14:22:35;;;;;;;27.15;17.60;;;;;;;;;;4988156;28;20026;-77
2022/01/13 14:25:02;;;;;;;30.30;19.98;;;;;;;;;;4981438;28;20030;-76
2022/01/13 14:27:28;;;;;;;29.83;17.70;;;;;;;;;;4981573;28;20031;-77
2022/01/13 14:29:54;;;;;;;25.02;16.30;;;;;;;;;;4978902;28;20218;-77
2022/01/13 14:32:24;;;;;;;33.63;19.98;;;;;;;;;;4985239;28;20034;-77
2022/01/13 14:34:51;;;;;;;31.42;18.10;;;;;;;;;;4986047;28;20034;-76
2022/01/13 14:37:19;;;;;;;32.30;19.25;;;;;;;;;;4982987;28;20041;-76
2022/01/13 14:40:03;;;;;;;28.13;16.25;;;;;;;;;;4986090;28;20089;-76
2022/01/13 14:42:30;;;;;;;30.85;16.95;;;;;;;;;;4985977;28;20050;-76
2022/01/13 14:45:15;;;;;;;29.38;17.65;;;;;;;;;;4977654;28;20038;-77
2022/01/13 14:47:41;;;;;;;25.58;15.57;;;;;;;;;;4979879;28;20026;-76
2022/01/13 14:50:07;;;;;;;31.27;16.45;;;;;;;;;;4983244;28;20130;-77
2022/01/13 14:52:33;;;;;;;25.40;14.32;;;;;;;;;;4983338;28;20026;-76
2022/01/13 14:54:59;;;;;;;25.15;14.82;;;;;;;;;;4979630;28;20037;-77
2022/01/13 14:57:25;;;;;;;26.10;15.48;;;;;;;;;;4984809;28;20094;-77
2022/01/13 14:59:51;;;;;;;29.77;16.00;;;;;;;;;;4981523;28;20146;-77